Station: Goulburn Airport  

  Atmospheric Gas Attenuation - ITU Rec 676-11   ----------------- dB/100km -----------------
Date Time Temp RH % AH g/m3 Dew Point Wind Direction Speed kph Gust kph Barometer mB Rainfall Since 9am 24GHz 47GHz 76GHz 122GHz 134GHz 241GHz
02/09 19:40 13 76 8.62 8.9 17 19 1015.1 0 19.7 26.2 40.4 105.9 99.8 343.4
02/09 19:30 13.5 75 8.77 9.2 17 20 1015.1 0 20.0 26.3 40.7 106.9 101.2 348.2
02/09 19:20 13.1 76 8.67 9 15 19 1015 0 19.8 26.3 40.5 106.3 100.4 345.3
02/09 19:10 13.2 75 8.61 8.9 13 17 1015.2 0 19.6 26.2 40.2 105.6 99.5 342.1
02/09 19:00 13.2 74 8.5 8.7 13 20 1015.2 0 19.4 26.0 39.8 104.4 98.0 337.0
02/09 18:50 13.4 74 8.6 8.9 15 19 1015.1 0 19.6 26.1 40.1 105.2 99.1 340.7
02/09 18:40 13.6 73 8.59 8.9 11 15 1015.1 0 19.6 26.0 39.9 104.8 98.7 339.4
02/09 18:30 13.1 74 8.44 8.6 11 13 1014.9 0 19.3 25.9 39.6 103.8 97.3 334.5
02/09 18:20 12.8 73 8.18 8.1 13 15 1014.9 0 18.7 25.6 38.7 101.4 94.2 323.7
02/09 18:10 13.5 71 8.31 8.4 15 19 1014.9 0 19.0 25.6 38.9 101.9 95.1 326.8
02/09 18:00 14.2 68 8.3 8.4 19 24 1014.9 0 18.9 25.4 38.5 100.9 94.1 323.5
02/09 17:50 15 65 8.33 8.5 20 24 1014.9 0 19.0 25.2 38.2 100.2 93.5 321.6
02/09 17:40 15.7 62 8.3 8.4 22 30 1014.9 0 18.9 24.9 37.8 99.0 92.3 317.4
02/09 17:30 16.3 60 8.32 8.5 26 35 1014.8 0 18.9 24.8 37.6 98.5 91.9 315.9
02/09 17:20 16.8 58 8.29 8.5 30 39 1014.8 0 18.8 24.6 37.2 97.5 90.9 312.6
02/09 17:10 17.2 57 8.35 8.6 32 41 1014.8 0 18.9 24.6 37.3 97.7 91.2 313.7
02/09 17:00 17.5 57 8.5 8.9 28 37 1014.7 0 19.2 24.7 37.7 98.8 92.7 319.0
02/09 16:50 17.9 57 8.7 9.3 28 41 1014.8 0 19.6 24.9 38.3 100.4 94.7 326.2
02/09 16:40 17.7 58 8.75 9.3 28 37 1014.9 0 19.7 25.1 38.5 101.1 95.6 329.3
02/09 16:30 17.9 56 8.55 9 32 41 1014.8 0 19.3 24.7 37.7 98.8 92.9 319.6
02/09 16:20 17.6 57 8.55 9 32 41 1014.8 0 19.3 24.8 37.8 99.2 93.2 320.8
02/09 16:10 18.1 54 8.34 8.7 33 39 1014.8 0 18.8 24.3 36.8 96.5 90.0 309.7
02/09 16:00 18.4 54 8.49 8.9 33 35 1014.8 0 19.1 24.5 37.2 97.6 91.5 315.0
02/09 15:50 18 58 8.91 9.6 28 35 1014.9 0 20.0 25.2 39.0 102.4 97.3 335.1
02/09 15:40 18.2 56 8.7 9.3 32 39 1014.9 0 19.6 24.9 38.1 100.0 94.4 325.0
02/09 15:30 18.2 56 8.7 9.3 26 35 1014.9 0 19.6 24.9 38.1 100.0 94.4 325.0
02/09 15:20 18.1 57 8.81 9.5 26 37 1015 0 19.8 25.1 38.6 101.2 95.9 330.3
02/09 15:10 18.6 56 8.91 9.7 30 39 1015.2 0 20.0 25.1 38.7 101.6 96.6 332.6
02/09 15:00 18.9 53 8.59 9.1 33 46 1015.1 0 19.3 24.5 37.4 98.0 92.2 317.5
02/09 14:50 19 50 8.15 8.4 41 52 1015.1 0 18.4 23.8 35.7 93.6 86.7 298.2
02/09 14:40 20.4 50 8.84 9.6 32 43 1015.1 0 19.8 24.5 37.6 98.7 93.5 322.2
02/09 14:30 19.5 51 8.56 9.1 33 48 1015.1 0 19.2 24.3 37.0 97.0 91.1 313.8
02/09 14:20 19.5 50 8.39 8.8 39 52 1015 0 18.9 24.1 36.4 95.3 89.1 306.5
02/09 14:10 19.4 49 8.17 8.4 39 44 1014.9 0 18.4 23.7 35.6 93.3 86.5 297.5
02/09 14:00 20 50 8.64 9.3 37 50 1014.9 0 19.4 24.3 37.1 97.2 91.5 315.2
02/09 13:50 19.3 48 7.96 8 46 54 1014.9 0 18.0 23.5 34.9 91.3 84.1 289.1
02/09 13:40 19.8 52 8.88 9.7 32 41 1015 0 19.9 24.7 38.0 99.8 94.7 326.3
02/09 13:30 18.6 56 8.91 9.7 32 39 1015.2 0 20.0 25.1 38.7 101.6 96.6 332.6
02/09 13:20 18.2 53 8.24 8.5 30 44 1015.3 0 18.6 24.2 36.4 95.4 88.7 305.1
02/09 13:10 18.4 52 8.18 8.4 33 37 1015.5 0 18.5 24.0 36.1 94.6 87.8 301.8
02/09 13:00 19.8 51 8.71 9.4 35 50 1015.7 0 19.5 24.5 37.4 98.2 92.7 319.2
02/09 12:50 19.6 50 8.44 8.9 35 46 1016 0 19.0 24.1 36.5 95.8 89.6 308.5
02/09 12:40 19.8 51 8.71 9.4 33 46 1016.2 0 19.5 24.5 37.5 98.2 92.7 319.3
02/09 12:30 19.2 50 8.24 8.5 35 46 1016.2 0 18.6 23.9 36.0 94.3 87.7 301.6
02/09 12:20 19.4 51 8.51 9 35 50 1016.4 0 19.1 24.3 36.9 96.8 90.8 312.4
02/09 12:10 18.8 50 8.05 8.2 35 48 1016.5 0 18.2 23.8 35.5 92.9 85.8 295.1
02/09 12:00 19.3 51 8.46 8.9 30 43 1016.6 0 19.0 24.3 36.8 96.4 90.3 310.7
02/09 11:50 19.5 54 9.06 10 30 39 1016.9 0 20.3 25.1 38.9 102.2 97.5 335.9
02/09 11:40 18.8 52 8.37 8.7 33 48 1017.1 0 18.9 24.3 36.7 96.2 89.8 308.9
02/09 11:30 19 55 8.96 9.8 32 41 1017.1 0 20.1 25.1 38.8 101.8 96.8 333.7
02/09 11:20 18.1 53 8.19 8.4 32 41 1017.3 0 18.5 24.2 36.3 95.2 88.4 303.9
02/09 11:10 18.5 55 8.7 9.3 32 41 1017.3 0 19.6 24.9 38.1 99.9 94.2 324.4
02/09 11:00 18.1 55 8.5 8.9 35 46 1017.4 0 19.2 24.7 37.5 98.3 92.2 317.3
02/09 10:50 18.3 54 8.44 8.8 35 44 1017.4 0 19.0 24.5 37.2 97.5 91.2 313.9
02/09 10:40 18.4 55 8.65 9.2 33 44 1017.4 0 19.5 24.8 37.9 99.5 93.7 322.7
02/09 10:30 17.8 56 8.5 8.9 32 41 1017.6 0 19.2 24.8 37.7 98.7 92.6 318.6
02/09 10:20 17.9 56 8.55 9 32 44 1017.5 0 19.3 24.8 37.8 99.1 93.1 320.3
02/09 10:10 17.6 58 8.7 9.2 32 35 1017.5 0 19.6 25.1 38.5 101.0 95.3 328.2
02/09 10:00 17.5 57 8.5 8.9 32 41 1017.4 0 19.2 24.8 37.8 99.1 92.9 319.7
02/09 09:50 17.3 57 8.4 8.7 35 46 1017.3 0 19.0 24.7 37.5 98.3 91.9 316.1
02/09 09:40 17.4 58 8.6 9.1 33 43 1017.4 0 19.4 25.0 38.2 100.2 94.3 324.5
02/09 09:30 17 55 7.96 7.9 32 46 1017.4 0 18.1 24.2 36.0 94.2 86.8 298.1
02/09 09:20 17.2 58 8.49 8.9 32 41 1017.5 0 19.2 24.9 37.9 99.4 93.2 320.5
02/09 09:10 17 57 8.25 8.4 30 39 1017.4 0 18.7 24.6 37.1 97.2 90.4 310.7
02/09 09:00 16.9 58 8.34 8.6 33 44 1017.4 0 18.9 24.8 37.5 98.2 91.6 315.1
02/09 08:50 16.4 58 8.09 8.1 33 43 1017.5 0 18.4 24.5 36.7 96.3 89.1 306.0
02/09 08:40 16.3 60 8.32 8.5 22 35 1017.5 0 18.9 24.9 37.7 98.7 92.1 316.6
02/09 08:30 16 63 8.58 9 19 22 1017.6 0 19.4 25.4 38.8 101.8 95.8 329.5
02/09 08:20 15.5 65 8.59 9 19 24 1017.6 0 19.5 25.6 39.1 102.6 96.5 332.0
02/09 08:10 14.8 68 8.61 9 19 20 1017.5 0 19.6 25.8 39.5 103.7 97.6 335.8
02/09 08:00 14.3 70 8.6 8.9 15 20 1017.6 0 19.6 25.9 39.7 104.2 98.1 337.5
02/09 07:50 13.6 74 8.71 9.1 9 15 1017.6 0 19.8 26.3 40.5 106.4 100.5 345.7
02/09 07:40 12.2 85 9.17 9.8 0 0 1017.5 0 20.9 27.5 43.2 113.4 108.6 374.0
02/09 07:30 11.6 86 8.94 9.3 0 2 1017.4 0 20.4 27.3 42.5 111.7 106.3 365.7
02/09 07:20 11.2 88 8.92 9.3 2 4 1017.3 0 20.4 27.4 42.7 112.0 106.5 366.5
02/09 07:10 10.7 92 9.04 9.5 11 15 1017 0 20.7 27.7 43.4 114.1 108.9 374.7
02/09 07:00 10.1 98 9.27 9.8 11 15 1016.8 0 21.2 28.3 44.7 117.6 113.0 389.0
02/09 06:50 8.7 95 8.22 7.9 9 11 1016.8 0 19.0 26.9 41.0 107.6 100.1 343.7
02/09 06:40 9.1 94 8.34 8.2 13 15 1016.7 0 19.3 27.0 41.3 108.3 101.2 347.7
02/09 06:30 9.3 95 8.54 8.5 15 17 1016.7 0 19.7 27.3 42.0 110.3 103.8 356.7
02/09 06:20 9.5 95 8.65 8.7 9 15 1016.7 0 19.9 27.4 42.4 111.3 105.1 361.1
02/09 06:10 9.4 95 8.59 8.6 6 6 1016.9 0 19.8 27.3 42.2 110.8 104.4 358.7
02/09 06:00 9.4 93 8.41 8.3 7 9 1016.9 0 19.4 27.0 41.4 108.7 101.8 349.9
02/09 05:50 9.4 94 8.5 8.5 7 9 1016.6 0 19.6 27.2 41.8 109.7 103.1 354.2
02/09 05:40 9.6 93 8.52 8.5 6 9 1016.7 0 19.6 27.2 41.8 109.7 103.1 354.3
02/09 05:30 9.7 93 8.58 8.6 0 0 1016.8 0 19.7 27.2 42.0 110.2 103.8 356.8
02/09 05:20 10.1 91 8.61 8.7 0 0 1016.8 0 19.8 27.2 41.9 110.0 103.7 356.4
02/09 05:10 10.6 89 8.69 8.9 0 0 1016.8 0 19.9 27.1 42.0 110.2 104.1 358.0
02/09 05:00 10.8 88 8.7 8.9 13 19 1016.8 0 19.9 27.1 41.9 110.0 104.0 357.6
02/09 04:50 11.4 86 8.83 9.1 13 17 1017 0 20.2 27.1 42.2 110.7 105.0 361.2
02/09 04:40 11.4 85 8.73 9 11 15 1016.7 0 20.0 27.0 41.7 109.5 103.6 356.3
02/09 04:30 11.4 84 8.62 8.8 11 11 1016.8 0 19.7 26.8 41.3 108.3 102.1 351.0
02/09 04:20 11.5 82 8.47 8.5 9 13 1016.9 0 19.4 26.5 40.6 106.5 99.9 343.4
02/09 04:10 11.7 81 8.47 8.6 11 15 1016.9 0 19.4 26.4 40.5 106.2 99.6 342.5
02/09 04:00 12 80 8.53 8.7 15 17 1017 0 19.5 26.5 40.6 106.5 100.1 344.1
02/09 03:50 12.2 78 8.42 8.5 19 30 1017.1 0 19.3 26.2 40.0 105.0 98.3 338.1
02/09 03:40 12.4 77 8.41 8.5 17 20 1017.3 0 19.2 26.1 39.9 104.7 98.0 336.8
02/09 03:30 12.3 76 8.25 8.2 19 22 1017.5 0 18.9 25.9 39.3 103.1 96.0 329.8
02/09 03:20 12.2 77 8.31 8.3 17 20 1017.4 0 19.0 26.0 39.6 103.9 96.9 333.0
02/09 03:10 12.1 77 8.26 8.2 13 19 1016.9 0 18.9 26.0 39.4 103.4 96.3 330.9

Last Refresh: 02-Sep-2026 19:15:47

Bureau of Meteorology